Time;durP1;ratioP1;P1;durP2;ratioP2;P2;SDS_P1;SDS_P2;PMS_P1;PMS_P2;Temp;Humidity;BMP_temperature;BMP_pressure;BME280_temperature;BME280_humidity;BME280_pressure;Samples;Min_cycle;Max_cycle;Signal;HPM_P1;HPM_P2
2023/12/12 00:00:03;;;;;;;5.65;1.90;;;;;;;19.21;65.18;100803.44;5081801;28;20098;-44
2023/12/12 00:02:28;;;;;;;5.40;1.90;;;;;;;19.19;65.79;100800.16;5073783;28;20035;-44
2023/12/12 00:04:54;;;;;;;6.78;1.85;;;;;;;19.19;66.31;100804.81;5079894;28;20386;-45
2023/12/12 00:07:20;;;;;;;3.03;1.80;;;;;;;19.19;66.92;100794.66;5076856;28;20021;-42
2023/12/12 00:09:45;;;;;;;6.05;2.25;;;;;;;19.19;67.23;100789.16;5080395;28;20020;-44
2023/12/12 00:12:11;;;;;;;5.90;1.80;;;;;;;19.21;67.38;100786.97;5073822;28;20021;-44
2023/12/12 00:14:36;;;;;;;4.82;1.63;;;;;;;19.21;67.71;100791.63;5079521;28;20028;-41
2023/12/12 00:17:02;;;;;;;2.28;1.63;;;;;;;19.22;67.97;100793.25;5078010;28;20233;-44
2023/12/12 00:19:27;;;;;;;6.15;1.77;;;;;;;19.22;68.19;100791.31;5082654;28;20039;-44
2023/12/12 00:21:53;;;;;;;3.97;1.83;;;;;;;19.23;68.30;100786.66;5081525;28;20061;-44
2023/12/12 00:24:18;;;;;;;4.93;1.83;;;;;;;19.22;68.54;100794.06;5076777;28;20551;-44
2023/12/12 00:26:44;;;;;;;2.17;1.40;;;;;;;19.21;68.75;100800.69;5082843;28;20028;-45
2023/12/12 00:29:09;;;;;;;4.35;1.52;;;;;;;19.21;68.93;100797.13;5080660;28;20077;-41
2023/12/12 00:31:34;;;;;;;3.58;1.85;;;;;;;19.20;69.37;100795.47;5073091;28;20037;-42
2023/12/12 00:34:00;;;;;;;5.05;1.67;;;;;;;19.20;68.98;100798.22;5059925;28;20050;-40
2023/12/12 00:36:25;;;;;;;2.92;1.60;;;;;;;19.19;69.48;100794.66;5076205;28;20030;-44
2023/12/12 00:38:51;;;;;;;2.63;1.60;;;;;;;19.19;69.55;100805.66;5069809;28;20067;-40
2023/12/12 00:41:16;;;;;;;6.47;1.98;;;;;;;19.19;69.46;100807.56;5084001;28;20139;-44
2023/12/12 00:43:41;;;;;;;5.40;1.95;;;;;;;19.18;69.69;100790.25;5076660;28;20043;-42
2023/12/12 00:46:10;;;;;;;9.13;1.85;;;;;;;19.18;69.75;100789.47;5078422;28;20028;-41
2023/12/12 00:48:35;;;;;;;3.55;1.70;;;;;;;19.18;69.72;100781.22;5071809;28;20312;-43
2023/12/12 00:51:00;;;;;;;3.50;2.00;;;;;;;19.18;69.94;100781.22;5065870;28;20430;-41
2023/12/12 00:53:26;;;;;;;4.05;1.85;;;;;;;19.17;69.83;100783.13;5070137;28;20033;-43
2023/12/12 00:55:51;;;;;;;4.78;1.85;;;;;;;19.17;70.07;100776.81;5064580;28;20028;-43
2023/12/12 00:58:17;;;;;;;3.55;1.83;;;;;;;19.17;69.87;100768.59;5072453;28;20052;-44
2023/12/12 01:00:42;;;;;;;3.95;1.60;;;;;;;19.17;70.29;100768.59;5077971;28;20678;-40
2023/12/12 01:03:08;;;;;;;3.83;1.80;;;;;;;19.16;69.95;100762.25;5065978;28;20035;-44
2023/12/12 01:05:33;;;;;;;4.00;1.80;;;;;;;19.16;70.08;100767.75;5065812;28;20016;-44
2023/12/12 01:07:58;;;;;;;3.10;1.70;;;;;;;19.16;70.19;100770.50;5073260;28;20024;-44
2023/12/12 01:10:24;;;;;;;4.90;2.42;;;;;;;19.15;70.50;100760.59;5079880;28;20395;-44
2023/12/12 01:12:49;;;;;;;2.83;1.77;;;;;;;19.15;70.46;100760.59;5085541;28;20035;-41
2023/12/12 01:15:15;;;;;;;6.22;2.38;;;;;;;19.15;70.87;100759.78;5078540;28;20432;-43
2023/12/12 01:17:40;;;;;;;4.15;1.75;;;;;;;19.16;70.80;100758.69;5073328;28;20492;-43
2023/12/12 01:20:07;;;;;;;4.75;2.00;;;;;;;19.14;70.57;100759.00;5079656;28;20123;-43
2023/12/12 01:22:33;;;;;;;4.88;2.00;;;;;;;19.15;70.46;100763.34;5079640;28;20039;-43
2023/12/12 01:24:59;;;;;;;4.63;1.98;;;;;;;19.13;70.32;100756.50;5074416;28;20022;-42
2023/12/12 01:27:24;;;;;;;5.22;1.90;;;;;;;19.11;69.93;100751.31;5062764;28;20093;-43
2023/12/12 01:29:49;;;;;;;3.63;1.88;;;;;;;19.10;69.74;100749.66;5070700;28;20500;-42
2023/12/12 01:32:16;;;;;;;3.58;1.73;;;;;;;19.08;69.26;100757.38;5074359;28;20425;-44
2023/12/12 01:34:41;;;;;;;4.93;1.73;;;;;;;19.07;69.04;100745.56;5071488;28;20031;-42
2023/12/12 01:37:06;;;;;;;4.55;1.98;;;;;;;19.05;69.11;100742.28;5068303;28;20024;-44
2023/12/12 01:39:32;;;;;;;3.88;1.75;;;;;;;19.03;68.98;100739.00;5077208;28;20048;-42
2023/12/12 01:41:57;;;;;;;3.13;1.80;;;;;;;19.01;68.89;100730.22;5074691;28;20480;-44
2023/12/12 01:44:23;;;;;;;5.18;1.70;;;;;;;18.99;68.71;100735.19;5069842;28;20341;-43
2023/12/12 01:46:50;;;;;;;5.20;1.75;;;;;;;18.97;68.35;100734.66;5079357;28;20407;-42
2023/12/12 01:49:16;;;;;;;4.05;1.63;;;;;;;18.97;68.06;100742.06;5076387;28;20157;-43
2023/12/12 01:51:42;;;;;;;4.53;1.60;;;;;;;18.94;68.04;100732.47;5058552;28;20032;-43
2023/12/12 01:54:08;;;;;;;2.72;1.40;;;;;;;18.94;68.05;100739.91;5089137;28;20147;-44
2023/12/12 01:56:33;;;;;;;3.67;1.65;;;;;;;18.91;67.82;100735.81;5082591;28;20032;-42
2023/12/12 01:58:59;;;;;;;3.47;1.60;;;;;;;18.91;67.83;100741.31;5075442;28;20051;-41
2023/12/12 02:01:26;;;;;;;3.00;1.38;;;;;;;18.90;67.71;100731.38;5078929;28;20193;-42
2023/12/12 02:03:53;;;;;;;3.15;1.42;;;;;;;18.88;67.30;100744.56;5080231;28;20020;-42
2023/12/12 02:06:22;;;;;;;4.22;1.67;;;;;;;18.87;67.14;100737.44;5062599;28;20544;-42
2023/12/12 02:08:49;;;;;;;3.95;1.50;;;;;;;18.84;67.16;100733.34;5070429;28;20040;-44
2023/12/12 02:11:15;;;;;;;3.67;1.42;;;;;;;18.83;67.09;100737.19;5074713;28;20043;-42
2023/12/12 02:13:41;;;;;;;4.90;1.73;;;;;;;18.82;66.88;100735.56;5080193;28;20027;-44
2023/12/12 02:16:06;;;;;;;3.08;1.20;;;;;;;18.81;66.81;100739.41;5077586;28;20490;-44
2023/12/12 02:18:32;;;;;;;3.58;1.40;;;;;;;18.80;66.73;100740.50;5055861;28;20431;-42
2023/12/12 02:21:00;;;;;;;3.92;1.42;;;;;;;18.77;66.81;100736.41;5081880;28;20118;-42
2023/12/12 02:23:27;;;;;;;2.80;1.52;;;;;;;18.77;66.70;100736.41;5079343;28;20772;-43
2023/12/12 02:25:53;;;;;;;2.50;1.33;;;;;;;18.75;66.72;100741.38;5081751;28;20100;-44
2023/12/12 02:28:19;;;;;;;4.72;1.75;;;;;;;18.74;66.40;100736.97;5077341;28;20050;-44
2023/12/12 02:30:44;;;;;;;4.38;1.30;;;;;;;18.74;66.31;100730.66;5082117;28;20043;-41
2023/12/12 02:33:10;;;;;;;2.85;1.45;;;;;;;18.73;66.32;100737.25;5070604;28;20032;-44
2023/12/12 02:35:35;;;;;;;1.95;1.30;;;;;;;18.69;66.20;100730.72;5077764;28;20016;-43
2023/12/12 02:38:00;;;;;;;3.75;1.58;;;;;;;18.69;66.18;100733.47;5077449;28;20031;-43
2023/12/12 02:40:26;;;;;;;3.60;1.58;;;;;;;18.68;66.17;100727.13;5080565;28;20103;-44
2023/12/12 02:42:52;;;;;;;3.28;1.30;;;;;;;18.67;65.83;100720.00;5071306;28;20032;-42
2023/12/12 02:45:18;;;;;;;2.58;1.48;;;;;;;18.66;65.90;100718.34;5090304;28;20076;-40
2023/12/12 02:47:43;;;;;;;2.55;1.52;;;;;;;18.66;65.85;100714.78;5076673;28;20496;-43
2023/12/12 02:50:09;;;;;;;2.78;1.40;;;;;;;18.65;65.94;100707.66;5076836;28;20032;-43
2023/12/12 02:52:34;;;;;;;3.60;1.60;;;;;;;18.63;65.81;100710.69;5072630;28;20571;-43
2023/12/12 02:55:00;;;;;;;3.33;1.55;;;;;;;18.62;65.55;100711.78;5073391;28;20088;-41
2023/12/12 02:57:25;;;;;;;4.40;1.70;;;;;;;18.60;65.65;100712.09;5078793;28;20086;-40
2023/12/12 02:59:51;;;;;;;1.98;1.38;;;;;;;18.60;65.62;100722.22;5076784;28;20369;-44
2023/12/12 03:02:16;;;;;;;3.33;1.65;;;;;;;18.59;65.21;100718.69;5077788;28;20103;-42
2023/12/12 03:04:45;;;;;;;5.05;1.58;;;;;;;18.60;65.42;100714.84;5059999;28;20098;-40
2023/12/12 03:07:11;;;;;;;2.58;1.52;;;;;;;18.59;65.30;100715.94;5081126;28;20435;-40
2023/12/12 03:09:36;;;;;;;2.03;1.50;;;;;;;18.58;65.30;100713.47;5075836;28;20448;-43
2023/12/12 03:12:02;;;;;;;4.82;1.67;;;;;;;18.57;65.21;100706.34;5080536;28;20134;-44
2023/12/12 03:14:31;;;;;;;4.25;1.60;;;;;;;18.56;64.94;100707.44;5077693;28;20058;-44
2023/12/12 03:16:59;;;;;;;3.60;1.60;;;;;;;18.55;65.24;100700.31;5063339;28;20032;-41
2023/12/12 03:19:25;;;;;;;4.88;1.60;;;;;;;18.54;65.05;100706.91;5079117;28;20035;-40
2023/12/12 03:21:50;;;;;;;4.80;1.65;;;;;;;18.54;64.88;100702.25;5073734;28;20103;-41
2023/12/12 03:24:19;;;;;;;4.20;1.70;;;;;;;18.52;64.81;100696.22;5072026;28;20063;-44
2023/12/12 03:26:44;;;;;;;3.45;1.60;;;;;;;18.51;64.91;100691.81;5078362;28;20020;-44
2023/12/12 03:29:10;;;;;;;4.35;1.92;;;;;;;18.51;64.93;100699.25;5080471;28;20067;-44
2023/12/12 03:31:35;;;;;;;5.28;1.83;;;;;;;18.50;64.73;100686.63;5078095;28;20023;-40
2023/12/12 03:34:01;;;;;;;2.47;1.67;;;;;;;18.48;64.75;100700.63;5067321;28;20439;-41
2023/12/12 03:36:26;;;;;;;4.20;1.70;;;;;;;18.48;64.55;100691.56;5080146;28;20061;-44
2023/12/12 03:38:52;;;;;;;2.88;1.55;;;;;;;18.46;64.66;100694.59;5081991;28;20029;-44
2023/12/12 03:41:17;;;;;;;3.72;1.77;;;;;;;18.46;64.53;100683.63;5060749;28;20012;-43
2023/12/12 03:43:43;;;;;;;5.10;2.10;;;;;;;18.46;64.64;100685.56;5074211;28;20042;-40
2023/12/12 03:46:15;;;;;;;3.70;1.83;;;;;;;18.43;64.39;100687.75;5079286;28;20020;-42
2023/12/12 03:48:40;;;;;;;3.45;1.65;;;;;;;18.43;64.26;100675.97;5080171;28;20431;-43
2023/12/12 03:51:09;;;;;;;3.35;1.70;;;;;;;18.42;64.42;100677.06;5078332;28;20046;-42
2023/12/12 03:53:35;;;;;;;3.95;1.90;;;;;;;18.40;64.33;100673.78;5076300;28;20101;-39
2023/12/12 03:56:00;;;;;;;4.68;1.90;;;;;;;18.39;64.26;100666.66;5073713;28;20482;-42
2023/12/12 03:58:26;;;;;;;5.38;2.08;;;;;;;18.38;64.36;100671.34;5099025;27;20503;-39
2023/12/12 04:00:51;;;;;;;5.68;2.30;;;;;;;18.37;64.39;100669.69;5088499;28;20165;-42
2023/12/12 04:03:17;;;;;;;5.15;2.10;;;;;;;18.36;64.16;100659.00;5083637;28;20024;-45
2023/12/12 04:05:42;;;;;;;5.72;1.80;;;;;;;18.35;64.29;100649.13;5100831;27;20393;-45
2023/12/12 04:14:50;;;;;;;5.55;2.38;;;;;;;18.31;64.05;100626.94;5010338;22;20191;-40
2023/12/12 04:17:15;;;;;;;5.25;2.00;;;;;;;18.31;63.84;100626.09;5022335;28;20029;-40
2023/12/12 04:19:41;;;;;;;4.97;2.13;;;;;;;18.30;63.85;100619.78;5024013;28;20501;-43
2023/12/12 04:22:06;;;;;;;6.78;2.38;;;;;;;18.30;63.93;100619.00;5021784;28;20179;-43
2023/12/12 04:24:31;;;;;;;4.03;2.22;;;;;;;18.29;63.87;100615.41;5022708;28;20026;-42
2023/12/12 04:26:57;;;;;;;4.75;2.40;;;;;;;18.27;64.09;100606.63;5024038;28;20561;-39
2023/12/12 04:29:22;;;;;;;4.78;2.13;;;;;;;18.27;63.95;100610.22;5025785;28;20032;-43
2023/12/12 04:31:51;;;;;;;4.85;2.30;;;;;;;18.26;63.71;100614.06;5023940;28;20033;-43
2023/12/12 04:34:16;;;;;;;4.40;2.10;;;;;;;18.25;63.82;100617.91;5007573;28;20037;-42
2023/12/12 04:36:41;;;;;;;4.18;1.98;;;;;;;18.25;64.01;100612.41;5021511;28;20076;-41
2023/12/12 04:39:11;;;;;;;5.22;2.13;;;;;;;18.27;63.90;100606.63;5024756;28;20048;-43
2023/12/12 04:41:40;;;;;;;4.70;2.40;;;;;;;18.30;63.75;100611.56;5025074;28;20025;-41
2023/12/12 04:44:07;;;;;;;4.50;2.45;;;;;;;18.36;63.78;100604.94;5023537;28;20036;-41
2023/12/12 04:46:32;;;;;;;4.57;2.30;;;;;;;18.42;63.66;100608.47;5010570;28;20033;-44
2023/12/12 04:49:00;;;;;;;6.25;2.38;;;;;;;18.48;63.48;100606.50;5024376;28;20021;-43
2023/12/12 04:51:25;;;;;;;5.32;2.25;;;;;;;18.53;63.67;100601.81;5024392;28;20029;-43
2023/12/12 04:53:51;;;;;;;4.95;2.45;;;;;;;18.62;63.54;100604.75;5024561;28;20068;-44
2023/12/12 04:56:16;;;;;;;5.72;2.55;;;;;;;18.69;63.12;100612.66;5024328;28;20139;-43
2023/12/12 04:58:41;;;;;;;5.70;2.97;;;;;;;18.76;63.11;100607.63;5022319;28;20052;-43
2023/12/12 05:01:07;;;;;;;5.57;2.22;;;;;;;18.85;62.99;100602.38;5023421;28;20021;-40
2023/12/12 05:03:32;;;;;;;6.25;2.80;;;;;;;18.92;62.98;100605.63;5023244;28;20053;-41
2023/12/12 05:05:58;;;;;;;9.25;2.88;;;;;;;19.02;62.84;100604.72;5023282;28;20029;-41
2023/12/12 05:08:23;;;;;;;5.50;2.55;;;;;;;19.12;62.63;100606.56;5011592;28;20438;-42
2023/12/12 05:10:49;;;;;;;5.90;2.50;;;;;;;19.22;62.58;100606.44;5024674;28;20029;-42
2023/12/12 05:13:14;;;;;;;7.70;2.55;;;;;;;19.32;62.53;100594.53;5024302;28;20034;-43
2023/12/12 05:15:39;;;;;;;7.13;2.70;;;;;;;19.42;62.29;100599.88;5024818;28;20151;-44
2023/12/12 05:18:07;;;;;;;5.97;2.80;;;;;;;19.51;62.07;100600.91;5023625;28;20120;-43
2023/12/12 05:20:33;;;;;;;7.13;3.10;;;;;;;19.62;61.80;100595.25;5025059;28;20017;-43
2023/12/12 05:22:58;;;;;;;7.32;2.92;;;;;;;19.70;61.73;100589.94;5022383;28;20315;-43
2023/12/12 05:25:24;;;;;;;7.38;2.70;;;;;;;19.80;61.41;100596.41;5021703;28;20506;-43
2023/12/12 05:27:49;;;;;;;7.80;3.17;;;;;;;19.88;61.24;100593.06;5022047;28;20129;-43
2023/12/12 05:30:14;;;;;;;6.63;3.03;;;;;;;19.95;61.23;100590.75;5024129;28;20140;-44
2023/12/12 05:32:40;;;;;;;7.43;3.45;;;;;;;20.04;61.10;100591.72;5024122;28;20033;-42
2023/12/12 05:35:07;;;;;;;8.13;3.15;;;;;;;20.11;60.84;100594.13;5023659;28;20546;-45
2023/12/12 05:37:32;;;;;;;7.93;3.28;;;;;;;20.18;61.18;100589.06;5023043;28;20041;-43
2023/12/12 05:39:58;;;;;;;8.43;3.47;;;;;;;20.25;60.83;100585.13;5021070;28;20522;-40
2023/12/12 05:42:23;;;;;;;9.80;3.67;;;;;;;20.29;60.53;100586.94;5021415;28;20176;-44
2023/12/12 05:44:48;;;;;;;8.05;3.17;;;;;;;20.35;60.53;100577.53;5022214;28;20040;-42
2023/12/12 05:47:14;;;;;;;7.95;3.40;;;;;;;20.40;60.59;100582.09;5003242;28;20106;-42
2023/12/12 05:49:39;;;;;;;8.10;3.20;;;;;;;20.43;60.58;100572.44;5002845;28;20120;-41
2023/12/12 05:52:05;;;;;;;6.60;3.03;;;;;;;20.42;60.28;100573.56;5021603;28;20452;-42
2023/12/12 05:54:30;;;;;;;7.78;3.50;;;;;;;20.40;60.33;100571.09;5021877;28;20466;-42
2023/12/12 05:56:56;;;;;;;9.38;3.33;;;;;;;20.39;60.72;100563.16;5021326;28;20060;-40
2023/12/12 05:59:21;;;;;;;7.25;3.20;;;;;;;20.37;60.41;100566.22;5019563;28;20057;-42
2023/12/12 06:01:46;;;;;;;6.03;2.95;;;;;;;20.32;60.48;100561.59;5019034;28;20217;-42
2023/12/12 06:04:12;;;;;;;6.38;3.15;;;;;;;20.27;60.51;100560.84;5014142;28;20079;-43
2023/12/12 06:06:44;;;;;;;10.40;3.60;;;;;;;20.24;60.77;100561.47;5021077;28;20483;-42
2023/12/12 06:09:13;;;;;;;7.18;3.25;;;;;;;20.18;60.51;100550.53;4998891;28;20028;-42
2023/12/12 06:11:40;;;;;;;11.55;3.63;;;;;;;20.15;60.68;100553.88;5005944;28;20036;-42
2023/12/12 06:14:06;;;;;;;8.18;3.10;;;;;;;20.12;60.71;100554.47;5014333;28;20392;-41
2023/12/12 06:16:31;;;;;;;7.38;3.15;;;;;;;20.09;60.71;100552.31;5016901;28;20041;-43
2023/12/12 06:18:57;;;;;;;7.45;3.20;;;;;;;20.08;60.83;100544.38;5020426;28;20033;-44
2023/12/12 06:21:22;;;;;;;8.32;3.47;;;;;;;20.03;60.83;100539.75;5019896;28;20737;-41
2023/12/12 06:23:48;;;;;;;8.57;3.17;;;;;;;20.01;60.88;100544.72;4998147;28;20117;-42
2023/12/12 06:26:15;;;;;;;7.78;3.40;;;;;;;19.96;60.59;100537.38;5008315;28;20060;-40
2023/12/12 06:28:40;;;;;;;8.27;3.60;;;;;;;19.92;61.01;100532.78;5017808;28;20033;-42
2023/12/12 06:31:07;;;;;;;8.70;3.75;;;;;;;19.90;60.80;100530.31;5017809;28;20032;-41
2023/12/12 06:33:33;;;;;;;7.20;3.03;;;;;;;19.86;61.00;100521.03;5018289;28;20036;-41
2023/12/12 06:35:58;;;;;;;5.68;3.00;;;;;;;19.83;61.00;100522.44;4991094;28;20502;-41
2023/12/12 06:38:24;;;;;;;7.05;3.10;;;;;;;19.80;61.04;100519.44;4986000;28;20033;-44
2023/12/12 06:40:50;;;;;;;6.88;3.22;;;;;;;19.77;61.24;100514.53;5020132;28;20026;-42
2023/12/12 06:43:16;;;;;;;9.63;3.50;;;;;;;19.75;60.93;100517.56;5021369;28;20068;-44
2023/12/12 06:45:41;;;;;;;8.35;3.45;;;;;;;19.70;61.11;100515.69;5021399;28;20032;-42
2023/12/12 06:48:06;;;;;;;9.27;3.63;;;;;;;19.69;61.35;100508.59;5018886;28;20346;-43
2023/12/12 06:50:32;;;;;;;11.45;3.78;;;;;;;19.66;61.11;100511.09;5021351;28;20033;-43
2023/12/12 06:52:57;;;;;;;7.97;3.45;;;;;;;19.63;60.99;100504.28;5019209;28;20576;-40
2023/12/12 06:55:23;;;;;;;5.85;2.90;;;;;;;19.61;61.34;100497.41;5020003;28;20290;-42
2023/12/12 06:57:48;;;;;;;8.98;3.63;;;;;;;19.59;61.24;100494.97;5019032;28;20025;-44
2023/12/12 07:00:14;;;;;;;11.00;3.60;;;;;;;19.57;61.38;100497.22;5024418;28;20022;-42
2023/12/12 07:02:40;;;;;;;10.00;3.67;;;;;;;19.55;61.36;100489.22;5022821;28;20055;-41
2023/12/12 07:05:05;;;;;;;10.68;3.80;;;;;;;19.53;61.30;100496.16;5025159;28;20021;-42
2023/12/12 07:07:32;;;;;;;12.38;3.85;;;;;;;19.50;61.33;100486.56;5023670;28;20060;-40
2023/12/12 07:09:58;;;;;;;11.90;3.88;;;;;;;19.48;61.14;100494.28;5023684;28;20030;-41
2023/12/12 07:12:24;;;;;;;9.38;3.67;;;;;;;19.47;61.47;100498.16;5024735;28;20308;-43
2023/12/12 07:14:50;;;;;;;10.77;3.47;;;;;;;19.46;61.07;100492.94;5024459;28;20053;-40
2023/12/12 07:17:16;;;;;;;9.10;3.58;;;;;;;19.45;61.23;100494.06;5008970;28;20033;-40
2023/12/12 07:19:41;;;;;;;8.88;3.75;;;;;;;19.42;61.46;100495.47;5023266;28;20026;-43
2023/12/12 07:22:07;;;;;;;8.15;3.65;;;;;;;19.40;61.26;100492.22;5025268;28;20039;-43
2023/12/12 07:24:32;;;;;;;9.88;3.67;;;;;;;19.37;61.50;100485.38;5024181;28;20118;-43
2023/12/12 07:26:57;;;;;;;8.88;3.50;;;;;;;19.35;61.20;100495.84;5025350;28;20057;-42
2023/12/12 07:29:23;;;;;;;9.80;3.80;;;;;;;19.33;61.24;100489.00;5024755;28;20034;-44
2023/12/12 07:31:50;;;;;;;9.23;3.55;;;;;;;19.32;61.36;100484.63;5025775;28;20075;-42
2023/12/12 07:34:15;;;;;;;9.55;3.40;;;;;;;19.31;61.58;100477.47;5022913;28;20566;-44
2023/12/12 07:36:41;;;;;;;9.23;3.72;;;;;;;19.30;61.79;100471.19;5025536;28;20109;-44
2023/12/12 07:39:07;;;;;;;7.82;3.40;;;;;;;19.28;61.56;100462.41;5025002;28;20135;-42
2023/12/12 07:41:32;;;;;;;6.95;3.20;;;;;;;19.27;61.59;100465.44;5024872;28;20240;-44
2023/12/12 07:43:58;;;;;;;10.80;3.55;;;;;;;19.23;61.48;100455.03;5024323;28;20032;-44
2023/12/12 07:46:23;;;;;;;8.57;3.35;;;;;;;19.23;61.51;100452.28;5025738;28;20032;-43
2023/12/12 07:48:49;;;;;;;11.43;3.75;;;;;;;19.21;61.66;100457.28;5023221;28;20382;-42
2023/12/12 07:51:15;;;;;;;8.65;3.60;;;;;;;19.20;61.87;100449.31;5025303;28;20021;-41
2023/12/12 07:53:40;;;;;;;10.32;4.10;;;;;;;19.17;61.74;100442.47;5023777;28;20743;-42
2023/12/12 07:56:06;;;;;;;8.98;4.00;;;;;;;19.16;61.69;100446.34;5020954;28;20053;-42
2023/12/12 07:58:32;;;;;;;8.57;3.60;;;;;;;19.15;62.00;100443.88;5020562;28;20072;-42
2023/12/12 08:00:57;;;;;;;8.00;3.90;;;;;;;19.13;61.80;100443.34;5023889;28;20033;-41
2023/12/12 08:03:22;;;;;;;7.15;3.45;;;;;;;19.12;61.75;100430.75;5023247;28;20032;-44
2023/12/12 08:05:49;;;;;;;8.65;3.63;;;;;;;19.09;61.88;100426.63;5024773;28;20056;-43
2023/12/12 08:08:14;;;;;;;8.23;3.35;;;;;;;19.08;61.73;100425.84;5020502;28;20036;-43
2023/12/12 08:10:40;;;;;;;6.35;3.28;;;;;;;19.07;61.95;100423.38;5022589;28;20056;-42
2023/12/12 08:13:05;;;;;;;7.93;3.50;;;;;;;19.06;62.28;100427.25;5022942;28;20052;-43
2023/12/12 08:15:31;;;;;;;7.22;3.85;;;;;;;19.05;62.33;100422.84;5020353;28;20067;-44
2023/12/12 08:17:56;;;;;;;7.53;3.50;;;;;;;19.03;62.19;100422.31;5021890;28;20218;-39
2023/12/12 08:20:22;;;;;;;7.03;3.65;;;;;;;19.01;62.00;100416.31;5022981;28;20390;-43
2023/12/12 08:22:47;;;;;;;8.00;3.58;;;;;;;19.00;62.13;100417.44;5025077;28;20433;-43
2023/12/12 08:25:12;;;;;;;9.68;3.85;;;;;;;19.00;62.31;100412.75;5024906;28;20017;-43
2023/12/12 08:27:38;;;;;;;8.07;3.97;;;;;;;18.98;62.32;100403.16;5022088;28;20033;-44
2023/12/12 08:30:05;;;;;;;8.55;3.75;;;;;;;18.97;62.46;100409.78;5025485;28;20051;-44
2023/12/12 08:32:30;;;;;;;7.00;3.60;;;;;;;18.95;62.37;100412.00;5007931;28;20033;-44
2023/12/12 08:34:56;;;;;;;7.40;3.00;;;;;;;18.94;62.43;100407.63;5022319;28;20031;-43
2023/12/12 08:37:21;;;;;;;7.40;3.45;;;;;;;18.93;62.56;100404.03;5009735;28;20649;-41
2023/12/12 08:39:47;;;;;;;8.98;3.50;;;;;;;18.92;62.67;100403.25;5021225;28;20025;-43
2023/12/12 08:42:15;;;;;;;15.43;4.07;;;;;;;18.92;62.33;100399.69;5024092;28;20115;-44
2023/12/12 08:44:41;;;;;;;9.90;4.07;;;;;;;18.89;62.61;100401.03;5025132;28;20107;-44
2023/12/12 08:47:09;;;;;;;13.85;4.10;;;;;;;18.89;62.60;100401.03;5024386;28;20521;-44
2023/12/12 08:49:37;;;;;;;9.32;4.03;;;;;;;18.88;62.80;100393.09;5023305;28;20116;-43
2023/12/12 08:52:06;;;;;;;8.60;3.88;;;;;;;18.87;62.51;100392.28;5024581;28;20057;-41
2023/12/12 08:54:36;;;;;;;7.88;3.60;;;;;;;18.86;62.71;100387.06;5024053;28;20038;-44
2023/12/12 08:57:02;;;;;;;9.75;3.80;;;;;;;18.85;62.70;100383.53;5024074;28;20100;-44
2023/12/12 08:59:28;;;;;;;8.20;3.53;;;;;;;18.85;62.72;100385.47;5024002;28;20022;-44
2023/12/12 09:01:54;;;;;;;10.13;3.90;;;;;;;18.84;62.75;100387.38;5021791;28;20028;-41
2023/12/12 09:04:19;;;;;;;9.75;3.80;;;;;;;18.82;62.64;100378.63;5024937;28;20033;-44
2023/12/12 09:06:45;;;;;;;9.05;3.95;;;;;;;18.82;62.69;100369.56;5022827;28;20056;-43
2023/12/12 09:09:11;;;;;;;10.32;4.13;;;;;;;18.81;62.95;100371.50;5005306;28;20406;-44
2023/12/12 09:11:37;;;;;;;9.57;3.92;;;;;;;18.81;62.79;100370.66;5022142;28;20048;-43
2023/12/12 09:14:03;;;;;;;12.18;3.97;;;;;;;18.80;62.90;100369.03;5022799;28;20391;-43
2023/12/12 09:16:28;;;;;;;11.13;4.20;;;;;;;18.79;62.99;100359.19;5023054;28;20095;-43
2023/12/12 09:18:55;;;;;;;11.35;4.10;;;;;;;18.77;62.84;100359.47;5010392;28;20061;-39
2023/12/12 09:21:21;;;;;;;10.57;4.10;;;;;;;18.77;62.97;100356.72;5004335;28;20029;-42
2023/12/12 09:23:47;;;;;;;12.52;4.38;;;;;;;18.76;62.98;100353.16;5020845;28;20130;-40
2023/12/12 09:26:13;;;;;;;15.00;4.60;;;;;;;18.76;63.11;100346.84;5022919;28;20040;-40
2023/12/12 09:28:42;;;;;;;18.38;4.47;;;;;;;18.75;63.29;100343.28;5025348;28;20519;-43
2023/12/12 09:31:11;;;;;;;21.08;4.95;;;;;;;18.79;63.48;100345.47;5021395;28;20036;-45
2023/12/12 09:33:37;;;;;;;21.30;4.57;;;;;;;18.82;64.07;100342.94;5019239;28;20510;-44
2023/12/12 09:36:03;;;;;;;22.13;4.75;;;;;;;18.88;64.42;100329.94;5001961;28;20504;-43
2023/12/12 09:38:29;;;;;;;10.63;4.38;;;;;;;18.92;64.54;100334.59;5020657;28;20029;-43
2023/12/12 09:40:54;;;;;;;13.80;4.45;;;;;;;18.96;64.42;100323.84;4987666;28;20032;-42
2023/12/12 09:43:24;;;;;;;20.58;4.20;;;;;;;19.01;64.61;100326.50;5004858;28;20049;-43
2023/12/12 09:45:49;;;;;;;13.82;4.30;;;;;;;19.05;64.35;100311.06;5023082;28;20057;-43
2023/12/12 09:48:15;;;;;;;11.23;4.70;;;;;;;19.10;64.62;100309.38;5009722;28;20053;-43
2023/12/12 09:50:42;;;;;;;11.05;4.53;;;;;;;19.13;64.69;100301.34;5004062;28;20029;-43
2023/12/12 09:53:08;;;;;;;14.98;3.88;;;;;;;19.17;64.46;100307.06;5020199;28;20029;-43
2023/12/12 09:55:33;;;;;;;9.80;3.80;;;;;;;19.19;64.44;100297.41;5004331;28;20028;-44
2023/12/12 09:57:59;;;;;;;12.68;4.07;;;;;;;19.21;64.32;100297.94;5022024;28;20021;-43
2023/12/12 10:00:24;;;;;;;10.63;4.13;;;;;;;19.23;64.67;100295.69;5020613;28;20126;-44
2023/12/12 10:02:55;;;;;;;11.85;3.45;;;;;;;19.26;64.59;100297.03;5020933;28;20080;-44
2023/12/12 10:05:20;;;;;;;13.55;4.25;;;;;;;19.27;64.62;100287.66;5002059;28;20112;-43
2023/12/12 10:07:46;;;;;;;8.52;3.65;;;;;;;19.29;64.54;100288.19;5019822;28;20029;-44
2023/12/12 10:10:12;;;;;;;11.85;4.30;;;;;;;19.30;64.15;100276.09;5022257;28;20100;-43
2023/12/12 10:12:38;;;;;;;13.27;4.10;;;;;;;19.32;64.51;100282.09;5021378;28;20167;-44
2023/12/12 10:15:20;;;;;;;13.55;4.32;;;;;;;19.33;64.54;100267.25;5022860;28;20105;-43
2023/12/12 10:17:45;;;;;;;11.88;3.78;;;;;;;19.36;64.21;100265.81;5019153;28;20037;-44
2023/12/12 10:20:11;;;;;;;16.60;3.58;;;;;;;19.40;64.12;100267.69;5001520;28;20025;-43
2023/12/12 10:22:36;;;;;;;11.93;3.67;;;;;;;19.47;63.84;100255.47;5020075;28;20128;-40
2023/12/12 10:25:14;;;;;;;19.13;3.95;;;;;;;19.53;63.76;100260.59;5020898;28;20508;-43
2023/12/12 10:27:41;;;;;;;10.23;3.33;;;;;;;19.61;63.20;100264.59;5020903;28;20040;-44
2023/12/12 10:30:08;;;;;;;11.00;3.85;;;;;;;19.68;62.98;100256.75;5023095;28;20045;-45
2023/12/12 10:32:36;;;;;;;9.80;4.00;;;;;;;19.75;63.17;100250.06;5021373;28;20026;-44
2023/12/12 10:35:02;;;;;;;9.43;3.75;;;;;;;19.81;62.89;100248.84;5002366;28;20029;-40
2023/12/12 10:37:27;;;;;;;13.13;3.97;;;;;;;19.87;62.90;100236.66;5021824;28;20434;-45
2023/12/12 10:39:53;;;;;;;10.90;3.63;;;;;;;19.93;62.70;100220.88;5019165;28;20064;-41
2023/12/12 10:42:18;;;;;;;400.13;20.77;;;;;;;19.97;62.83;100219.94;5021090;28;20041;-43
2023/12/12 10:44:46;;;;;;;16.55;3.95;;;;;;;20.01;63.19;100222.91;5022117;28;20018;-43
2023/12/12 10:47:14;;;;;;;14.02;4.05;;;;;;;19.99;62.69;100205.91;5005844;28;20591;-43
2023/12/12 10:49:43;;;;;;;12.48;4.00;;;;;;;19.96;62.91;100212.00;5020979;28;20013;-42
2023/12/12 10:52:10;;;;;;;11.27;4.75;;;;;;;19.93;62.88;100202.44;5004076;28;20502;-41
2023/12/12 10:54:36;;;;;;;14.27;4.00;;;;;;;19.88;62.93;100197.84;5005620;28;20421;-45
2023/12/12 10:57:02;;;;;;;13.50;4.32;;;;;;;19.86;62.66;100202.03;5023391;28;20079;-44
2023/12/12 10:59:32;;;;;;;14.85;4.43;;;;;;;19.82;62.81;100201.78;5022123;28;20025;-44
2023/12/12 11:01:58;;;;;;;12.93;4.10;;;;;;;19.78;63.05;100194.44;5001431;28;20036;-42
2023/12/12 11:04:24;;;;;;;11.23;3.95;;;;;;;19.75;62.73;100186.81;5001652;28;20040;-42
2023/12/12 11:06:50;;;;;;;13.15;3.55;;;;;;;19.70;62.83;100180.28;5021181;28;20021;-41
2023/12/12 11:09:16;;;;;;;7.57;3.80;;;;;;;19.67;62.96;100160.88;5020992;28;20075;-42
2023/12/12 11:11:43;;;;;;;10.82;3.95;;;;;;;19.65;63.10;100165.84;5020788;28;20053;-44
2023/12/12 11:14:09;;;;;;;12.20;4.97;;;;;;;19.62;63.00;100160.94;5022117;28;20052;-44
2023/12/12 11:16:34;;;;;;;9.45;4.40;;;;;;;19.57;63.30;100156.38;5002638;28;20397;-41
2023/12/12 11:19:01;;;;;;;10.95;4.57;;;;;;;19.56;63.17;100152.78;5003644;28;20033;-42
2023/12/12 11:21:46;;;;;;;10.18;4.80;;;;;;;19.54;63.27;100154.22;5020293;28;20024;-45
2023/12/12 11:24:17;;;;;;;11.48;4.63;;;;;;;19.53;63.43;100141.59;5019560;28;20021;-42